Time;durP1;ratioP1;P1;durP2;ratioP2;P2;SDS_P1;SDS_P2;PMS_P1;PMS_P2;Temp;Humidity;BMP_temperature;BMP_pressure;BME280_temperature;BME280_humidity;BME280_pressure;Samples;Min_cycle;Max_cycle;Signal;HPM_P1;HPM_P2
2021/04/20 00:00:14;;;;;;;17.70;13.55;;;;;;;10.33;70.15;100652.48;1769623;81;25684;-57
2021/04/20 00:02:44;;;;;;;21.25;13.45;;;;;;;10.29;71.46;100654.23;1733886;81;26197;-58
2021/04/20 00:05:16;;;;;;;19.35;13.40;;;;;;;10.22;72.66;100643.67;1739130;82;25424;-57
2021/04/20 00:07:44;;;;;;;21.68;14.05;;;;;;;10.15;72.46;100654.95;1728924;83;27545;-57
2021/04/20 00:10:17;;;;;;;22.17;13.70;;;;;;;10.14;73.00;100652.41;1733663;82;25668;-56
2021/04/20 00:12:47;;;;;;;21.85;14.35;;;;;;;10.07;73.67;100646.72;1733958;82;25664;-57
2021/04/20 00:15:23;;;;;;;22.80;13.13;;;;;;;9.98;73.52;100647.06;1755619;80;26449;-55
2021/04/20 00:17:53;;;;;;;20.60;13.45;;;;;;;9.96;74.62;100644.13;1739110;82;25644;-57
2021/04/20 00:20:22;;;;;;;22.48;13.58;;;;;;;9.94;74.53;100636.72;1728916;83;27511;-57
2021/04/20 00:22:52;;;;;;;20.30;13.10;;;;;;;9.92;75.09;100635.99;1746410;81;25456;-56
2021/04/20 00:25:21;;;;;;;18.77;12.63;;;;;;;9.84;75.31;100639.34;1745729;82;25692;-57
2021/04/20 00:27:50;;;;;;;18.95;13.55;;;;;;;9.79;75.50;100633.03;1767757;81;25542;-56
2021/04/20 00:30:19;;;;;;;20.40;12.37;;;;;;;9.76;75.98;100630.63;1745753;81;25714;-56
2021/04/20 00:32:47;;;;;;;15.83;11.70;;;;;;;9.71;76.30;100625.66;1767636;81;27596;-57
2021/04/20 00:35:16;;;;;;;17.57;11.55;;;;;;;9.71;76.70;100622.98;1745612;81;26292;-56
2021/04/20 00:37:44;;;;;;;15.65;12.05;;;;;;;9.67;76.50;100623.37;1767732;81;25888;-57
2021/04/20 00:40:16;;;;;;;17.37;12.53;;;;;;;9.66;76.68;100628.39;1723844;81;25742;-58
2021/04/20 00:42:56;;;;;;;19.45;12.58;;;;;;;9.63;77.22;100628.17;1735687;82;25933;-57
2021/04/20 00:45:32;;;;;;;18.02;11.33;;;;;;;9.59;77.12;100624.03;1738702;82;28426;-56
2021/04/20 00:48:01;;;;;;;16.75;11.38;;;;;;;9.58;77.14;100620.98;1738609;82;26339;-56
2021/04/20 00:50:38;;;;;;;16.90;11.80;;;;;;;9.58;77.04;100621.49;1738628;82;25682;-56
2021/04/20 00:53:08;;;;;;;13.78;9.88;;;;;;;9.58;77.46;100621.49;1724421;82;25711;-57
2021/04/20 00:55:37;;;;;;;16.87;11.15;;;;;;;9.54;77.21;100622.25;1799796;78;26176;-57
2021/04/20 00:58:07;;;;;;;17.85;11.60;;;;;;;9.51;77.69;100620.66;1799539;79;27579;-59
2021/04/20 01:00:35;;;;;;;15.53;11.35;;;;;;;9.47;77.84;100621.06;1799714;79;25750;-56
2021/04/20 01:03:03;;;;;;;21.50;12.10;;;;;;;9.44;77.61;100614.13;1799666;79;25616;-57
2021/04/20 01:05:34;;;;;;;16.12;11.25;;;;;;;9.49;78.49;100615.07;1799806;79;26298;-57
2021/04/20 01:08:12;;;;;;;18.98;10.63;;;;;;;9.44;79.01;100614.13;1799859;78;26190;-57
2021/04/20 01:10:44;;;;;;;17.95;11.88;;;;;;;9.35;79.40;100611.77;1799505;78;27516;-56
2021/04/20 01:13:13;;;;;;;20.05;12.23;;;;;;;9.28;79.49;100611.91;1799703;78;25704;-57
2021/04/20 01:15:47;;;;;;;17.48;11.68;;;;;;;9.24;80.04;100606.45;1799675;79;25726;-57
2021/04/20 01:18:18;;;;;;;;;;;;;;;9.20;79.97;100609.03;1802479;79;25767;-57
2021/04/20 01:20:51;;;;;;;20.23;12.60;;;;;;;9.17;80.10;100612.83;1799846;79;25663;-57
2021/04/20 01:23:33;;;;;;;19.87;12.35;;;;;;;9.13;80.69;100611.41;1799655;78;27524;-56
2021/04/20 01:26:04;;;;;;;19.60;12.78;;;;;;;9.10;80.31;100604.95;1799983;79;25694;-56
2021/04/20 01:28:32;;;;;;;22.45;13.15;;;;;;;9.12;81.20;100604.34;1799888;79;25710;-56
2021/04/20 01:31:01;;;;;;;17.67;12.58;;;;;;;9.13;80.93;100613.23;1799736;78;26548;-57
2021/04/20 01:33:29;;;;;;;22.35;13.05;;;;;;;9.11;80.85;100606.66;1799866;78;25730;-57
2021/04/20 01:35:57;;;;;;;19.17;11.97;;;;;;;9.11;81.12;100601.77;1799530;79;27600;-56
2021/04/20 01:38:30;;;;;;;19.75;11.30;;;;;;;9.11;81.02;100602.63;1799713;79;25679;-57
2021/04/20 01:40:59;;;;;;;18.35;11.45;;;;;;;9.12;81.39;100606.16;1788637;79;25710;-59
2021/04/20 01:43:28;;;;;;;22.00;12.00;;;;;;;9.09;81.30;100597.88;1784313;78;25658;-56
2021/04/20 01:45:56;;;;;;;22.10;11.65;;;;;;;9.05;81.43;100598.64;1819078;78;26245;-56
2021/04/20 01:48:25;;;;;;;17.77;11.18;;;;;;;9.07;81.66;100600.70;1748825;81;28945;-57
2021/04/20 01:50:53;;;;;;;18.32;11.25;;;;;;;9.04;81.59;100597.44;1829446;78;26145;-58
2021/04/20 01:53:22;;;;;;;20.35;12.13;;;;;;;9.04;81.65;100599.61;1739925;82;25626;-56
2021/04/20 01:56:01;;;;;;;18.27;11.20;;;;;;;9.04;81.59;100595.59;1710695;83;25677;-55
2021/04/20 01:58:39;;;;;;;19.65;11.12;;;;;;;9.10;81.67;100590.70;1820362;78;25569;-57
2021/04/20 02:01:24;;;;;;;16.87;11.93;;;;;;;9.02;82.23;100588.16;1776406;79;25776;-57
2021/04/20 02:03:53;;;;;;;15.68;10.82;;;;;;;8.98;82.07;100592.56;1776194;80;27504;-57
2021/04/20 02:06:25;;;;;;;19.10;11.88;;;;;;;8.94;81.97;100590.64;1776514;80;25696;-57
2021/04/20 02:08:54;;;;;;;16.15;11.30;;;;;;;8.94;82.18;100594.66;1776465;79;25739;-56
2021/04/20 02:11:24;;;;;;;16.05;10.32;;;;;;;8.93;81.55;100590.27;1776381;79;25813;-56
2021/04/20 02:13:52;;;;;;;16.42;10.58;;;;;;;8.96;81.89;100587.84;1776532;80;25637;-56
2021/04/20 02:16:22;;;;;;;17.17;11.60;;;;;;;8.96;81.43;100585.16;1790000;78;28491;-58
2021/04/20 02:18:55;;;;;;;17.10;10.25;;;;;;;8.99;81.16;100588.44;1757462;81;25453;-57
2021/04/20 02:21:25;;;;;;;21.10;10.72;;;;;;;9.06;81.00;100586.92;1791652;80;25674;-58
2021/04/20 02:23:53;;;;;;;16.23;11.25;;;;;;;9.11;80.95;100585.19;1757344;80;25609;-57
2021/04/20 02:26:36;;;;;;;17.30;11.60;;;;;;;9.14;80.81;100580.91;1791370;80;26256;-58
2021/04/20 02:29:07;;;;;;;15.15;11.20;;;;;;;9.15;80.44;100581.24;1757529;81;27736;-57
2021/04/20 02:31:38;;;;;;;16.95;10.90;;;;;;;9.21;80.38;100578.53;1791613;80;25535;-57
2021/04/20 02:34:10;;;;;;;19.30;11.30;;;;;;;9.24;79.84;100583.14;1757344;81;25587;-58
2021/04/20 02:36:42;;;;;;;18.15;10.78;;;;;;;9.30;79.93;100576.90;1726986;82;26127;-56
2021/04/20 02:39:13;;;;;;;17.17;11.65;;;;;;;9.37;79.86;100580.23;1727056;82;26556;-56
2021/04/20 02:41:49;;;;;;;16.48;11.48;;;;;;;9.37;79.54;100577.55;1742621;81;27530;-57
2021/04/20 02:44:17;;;;;;;14.87;10.90;;;;;;;9.47;79.67;100572.25;1710884;82;25678;-60
2021/04/20 02:46:55;;;;;;;21.02;11.38;;;;;;;9.52;79.13;100567.82;1682854;83;25800;-61
2021/04/20 02:49:25;;;;;;;21.05;12.18;;;;;;;9.58;79.15;100571.30;1711157;82;25835;-60
2021/04/20 02:51:55;;;;;;;18.75;11.73;;;;;;;9.64;78.63;100567.23;1707118;82;25692;-58
2021/04/20 02:54:24;;;;;;;15.83;10.98;;;;;;;9.67;78.61;100569.66;1728292;82;28759;-57
2021/04/20 02:56:54;;;;;;;18.48;12.00;;;;;;;9.74;78.64;100564.09;1706452;82;25716;-57
2021/04/20 02:59:22;;;;;;;20.15;11.83;;;;;;;9.78;78.18;100570.05;1747142;80;25697;-57
2021/04/20 03:01:52;;;;;;;18.25;11.28;;;;;;;9.79;78.15;100569.89;1747258;80;25733;-57
2021/04/20 03:04:21;;;;;;;18.82;13.15;;;;;;;9.83;78.04;100575.84;1747280;82;25723;-57
2021/04/20 03:06:49;;;;;;;20.92;12.47;;;;;;;9.82;77.89;100570.11;1747140;82;28434;-55
2021/04/20 03:09:17;;;;;;;22.70;12.55;;;;;;;9.86;77.80;100570.20;1746799;80;25703;-55
2021/04/20 03:11:59;;;;;;;18.65;12.30;;;;;;;9.88;77.76;100572.27;1746365;82;25698;-56
2021/04/20 03:14:28;;;;;;;20.10;12.65;;;;;;;9.90;77.50;100566.75;1746780;82;25719;-55
2021/04/20 03:16:57;;;;;;;15.35;11.28;;;;;;;9.83;77.15;100572.69;1746765;82;26084;-57
2021/04/20 03:19:25;;;;;;;18.17;12.80;;;;;;;9.77;77.42;100569.17;1815860;78;28447;-56
2021/04/20 03:21:54;;;;;;;22.77;13.55;;;;;;;9.68;77.34;100573.55;1819269;78;26140;-57
2021/04/20 03:24:36;;;;;;;23.05;13.62;;;;;;;9.61;77.62;100571.05;1789990;78;25705;-57
2021/04/20 03:27:06;;;;;;;22.10;14.03;;;;;;;9.61;77.63;100566.15;1818890;78;25625;-57
2021/04/20 03:29:34;;;;;;;23.02;15.80;;;;;;;9.67;77.78;100577.72;1819554;78;25821;-57
2021/04/20 03:32:04;;;;;;;24.80;15.03;;;;;;;9.72;77.67;100576.80;1819463;77;27517;-57
2021/04/20 03:34:40;;;;;;;18.50;13.60;;;;;;;9.76;77.57;100582.75;1819389;77;25605;-57
2021/04/20 03:37:12;;;;;;;17.35;12.30;;;;;;;9.78;77.61;100582.13;1819456;78;25618;-57
2021/04/20 03:39:48;;;;;;;20.77;11.95;;;;;;;9.79;77.27;100587.87;1816203;78;26197;-57
2021/04/20 03:42:27;;;;;;;15.58;11.43;;;;;;;9.79;77.30;100586.02;1782460;80;25647;-57
2021/04/20 03:45:01;;;;;;;21.50;13.83;;;;;;;9.80;77.21;100586.88;1782293;79;27601;-57
2021/04/20 03:47:36;;;;;;;17.30;11.35;;;;;;;9.82;77.33;100584.89;1782302;80;25772;-57
2021/04/20 03:50:19;;;;;;;17.85;11.43;;;;;;;9.80;76.90;100588.23;1801741;79;25713;-57
2021/04/20 03:52:51;;;;;;;18.52;12.85;;;;;;;9.78;77.00;100586.16;1801846;79;26122;-57
2021/04/20 03:55:23;;;;;;;18.85;12.00;;;;;;;9.76;76.95;100588.12;1816007;78;25700;-57
2021/04/20 03:57:55;;;;;;;17.85;11.95;;;;;;;9.71;76.98;100581.81;1820202;78;27528;-57
2021/04/20 04:00:25;;;;;;;17.65;12.65;;;;;;;9.68;76.99;100588.82;1755865;81;25847;-57
2021/04/20 04:02:55;;;;;;;17.55;11.57;;;;;;;9.59;77.00;100585.60;1760111;81;25694;-57
2021/04/20 04:05:29;;;;;;;17.60;11.68;;;;;;;9.54;77.84;100583.31;1741045;81;26170;-57
2021/04/20 04:08:00;;;;;;;17.15;11.35;;;;;;;9.48;77.33;100584.70;1771962;80;25719;-57
2021/04/20 04:10:34;;;;;;;18.05;10.82;;;;;;;9.43;78.55;100584.73;1740888;82;27525;-55
2021/04/20 04:13:06;;;;;;;19.10;12.15;;;;;;;9.34;78.38;100585.03;1771658;80;25604;-57
2021/04/20 04:15:36;;;;;;;17.27;11.45;;;;;;;9.35;78.20;100586.73;1741129;82;25801;-57
2021/04/20 04:18:10;;;;;;;14.40;10.90;;;;;;;9.36;78.28;100582.59;1771814;80;26319;-58
2021/04/20 04:20:38;;;;;;;16.70;12.10;;;;;;;9.38;79.11;100579.77;1741162;81;25697;-58
2021/04/20 04:23:17;;;;;;;15.48;11.05;;;;;;;9.34;79.06;100587.23;1771349;80;28420;-59
2021/04/20 04:26:08;;;;;;;17.57;12.40;;;;;;;9.36;79.72;100583.06;1740870;81;25804;-57
2021/04/20 04:28:39;;;;;;;16.17;12.73;;;;;;;9.33;79.22;100577.48;1771742;80;25701;-57
2021/04/20 04:31:09;;;;;;;20.85;12.95;;;;;;;9.34;79.28;100585.03;1741004;82;25642;-57
2021/04/20 04:33:44;;;;;;;19.23;11.90;;;;;;;9.34;79.20;100585.03;1771670;80;26121;-59
2021/04/20 04:36:12;;;;;;;16.07;12.23;;;;;;;9.35;79.23;100586.26;1740764;82;27541;-58
2021/04/20 04:38:42;;;;;;;14.85;10.72;;;;;;;9.38;79.18;100594.03;1749961;80;25664;-58
2021/04/20 04:41:13;;;;;;;18.55;11.38;;;;;;;9.42;79.21;100589.74;1712029;81;25667;-56
2021/04/20 04:43:49;;;;;;;17.07;11.08;;;;;;;9.44;79.16;100584.59;1758575;80;25372;-61
2021/04/20 04:46:22;;;;;;;19.17;11.50;;;;;;;9.34;79.50;100576.50;1740876;82;25651;-61
2021/04/20 04:48:52;;;;;;;17.10;12.07;;;;;;;9.37;79.60;100592.83;1740878;81;28403;-59
2021/04/20 04:51:22;;;;;;;15.60;11.50;;;;;;;9.35;79.41;100594.31;1740841;82;26209;-58
2021/04/20 04:53:52;;;;;;;16.70;11.03;;;;;;;9.32;79.30;100589.20;1737335;80;25731;-58
2021/04/20 04:56:25;;;;;;;16.82;11.60;;;;;;;9.32;80.05;100594.56;1714428;82;25447;-58
2021/04/20 04:58:53;;;;;;;14.53;10.75;;;;;;;9.29;80.08;100584.08;1734946;82;26097;-58
2021/04/20 05:01:23;;;;;;;20.08;11.63;;;;;;;9.20;79.52;100588.90;1743442;82;27647;-59
2021/04/20 05:03:51;;;;;;;17.00;11.48;;;;;;;9.20;79.81;100592.92;1743470;82;25714;-58
2021/04/20 05:06:21;;;;;;;19.15;12.03;;;;;;;9.19;79.65;100592.56;1743569;81;25715;-59
2021/04/20 05:08:52;;;;;;;18.60;11.65;;;;;;;9.19;79.92;100593.91;1743717;81;25739;-60
2021/04/20 05:11:20;;;;;;;18.45;11.18;;;;;;;9.17;79.75;100589.19;1743501;81;25649;-58
2021/04/20 05:13:48;;;;;;;17.00;11.93;;;;;;;9.16;80.01;100587.48;1743384;81;28243;-57
2021/04/20 05:16:19;;;;;;;20.77;13.50;;;;;;;9.20;79.83;100591.58;1743570;81;25675;-60
2021/04/20 05:18:48;;;;;;;21.23;13.43;;;;;;;9.21;79.79;100594.63;1743399;81;25765;-60
2021/04/20 05:21:17;;;;;;;22.52;12.35;;;;;;;9.19;79.70;100595.25;1743434;82;25591;-57
2021/04/20 05:23:45;;;;;;;17.60;13.08;;;;;;;9.19;79.92;100596.11;1743517;82;25921;-58
2021/04/20 05:26:13;;;;;;;18.95;13.43;;;;;;;9.19;79.76;100593.43;1743676;81;27537;-60
2021/04/20 05:28:50;;;;;;;18.65;12.70;;;;;;;9.23;79.82;100598.05;1743546;81;25736;-60
2021/04/20 05:31:17;;;;;;;19.90;12.43;;;;;;;9.25;79.60;100594.74;1743576;82;25455;-59
2021/04/20 05:33:45;;;;;;;19.45;11.30;;;;;;;9.29;79.79;100594.82;1743280;82;25702;-62
2021/04/20 05:36:15;;;;;;;18.60;12.73;;;;;;;9.30;79.76;100601.89;1743153;82;25694;-59
2021/04/20 05:38:52;;;;;;;21.40;13.32;;;;;;;9.27;79.28;100603.52;1758257;80;27517;-59
2021/04/20 05:41:27;;;;;;;21.45;13.68;;;;;;;9.30;79.59;100604.58;1720357;80;25750;-59
2021/04/20 05:43:59;;;;;;;21.55;13.80;;;;;;;9.29;79.19;100602.87;1736455;81;25720;-58
2021/04/20 05:46:35;;;;;;;21.60;13.55;;;;;;;9.30;79.29;100603.74;1751932;81;25703;-57
2021/04/20 05:49:07;;;;;;;20.60;13.58;;;;;;;9.30;79.50;100603.74;1784793;80;25461;-57
2021/04/20 05:51:37;;;;;;;19.50;12.45;;;;;;;9.32;79.59;100609.33;1752849;81;28493;-58
2021/04/20 05:54:10;;;;;;;22.65;13.65;;;;;;;9.35;79.42;100610.42;1784888;80;25584;-58
2021/04/20 05:56:39;;;;;;;22.17;15.32;;;;;;;9.39;79.53;100611.84;1754007;81;25725;-57
2021/04/20 05:59:08;;;;;;;21.15;13.65;;;;;;;9.36;79.35;100610.78;1774568;80;26580;-57
2021/04/20 06:01:41;;;;;;;44.80;23.67;;;;;;;9.36;79.28;100605.89;1714993;83;26056;-61
2021/04/20 06:04:10;;;;;;;28.38;15.45;;;;;;;9.33;79.09;100607.01;1782142;80;27540;-57
2021/04/20 06:06:41;;;;;;;20.50;14.73;;;;;;;9.39;79.24;100613.69;1715100;83;25482;-57
2021/04/20 06:09:11;;;;;;;18.10;13.65;;;;;;;9.45;79.23;100610.47;1781713;80;25722;-59
2021/04/20 06:11:40;;;;;;;18.85;12.78;;;;;;;9.47;79.21;100608.50;1715082;83;26518;-58
2021/04/20 06:14:11;;;;;;;18.10;13.13;;;;;;;9.50;79.10;100609.55;1782046;80;26041;-59
2021/04/20 06:16:39;;;;;;;24.07;13.10;;;;;;;9.49;79.27;100611.91;1761109;80;27511;-57
2021/04/20 06:19:07;;;;;;;17.95;12.13;;;;;;;9.47;78.78;100615.22;1696982;83;25738;-57
2021/04/20 06:21:37;;;;;;;19.40;12.82;;;;;;;9.50;78.83;100612.75;1720344;81;25520;-57
2021/04/20 06:24:07;;;;;;;21.05;13.55;;;;;;;9.53;78.61;100615.18;1696969;83;26821;-56
2021/04/20 06:26:39;;;;;;;21.93;12.55;;;;;;;9.51;78.19;100615.29;1756849;81;25701;-57
2021/04/20 06:29:07;;;;;;;21.48;12.45;;;;;;;9.50;78.29;100616.78;1781980;80;27586;-58
2021/04/20 06:31:36;;;;;;;21.90;13.05;;;;;;;9.51;78.59;100615.80;1781870;80;25734;-58
2021/04/20 06:34:06;;;;;;;20.10;13.30;;;;;;;9.51;78.50;100613.95;1781817;80;25808;-57
2021/04/20 06:36:38;;;;;;;18.25;11.90;;;;;;;9.57;78.64;100612.56;1714974;83;26386;-59
2021/04/20 06:39:12;;;;;;;16.45;12.30;;;;;;;9.63;78.68;100611.19;1781859;80;25762;-56
2021/04/20 06:41:42;;;;;;;24.32;13.20;;;;;;;9.68;78.31;100616.52;1663317;83;27979;-58
2021/04/20 06:44:24;;;;;;;20.12;13.65;;;;;;;9.76;78.11;100610.96;1681629;83;26290;-57
2021/04/20 06:47:04;;;;;;;20.25;13.95;;;;;;;9.81;77.89;100614.95;1750253;80;25617;-62
2021/04/20 06:49:52;;;;;;;23.45;13.75;;;;;;;9.88;77.84;100617.95;1744710;82;25629;-58
2021/04/20 06:53:05;;;;;;;27.75;14.73;;;;;;;9.87;77.70;100614.91;1750327;81;25759;-58
2021/04/20 06:56:00;;;;;;;21.42;13.80;;;;;;;9.90;77.66;100615.98;1750173;81;28055;-60
2021/04/20 06:58:50;;;;;;;20.43;14.53;;;;;;;9.91;77.31;100618.16;1744266;82;25705;-56
2021/04/20 07:01:41;;;;;;;23.05;14.45;;;;;;;9.94;77.10;100625.97;1743443;82;25789;-57
2021/04/20 07:04:37;;;;;;;22.02;15.00;;;;;;;9.97;76.68;100625.67;1743761;81;26477;-58
2021/04/20 07:07:27;;;;;;;;;;;;;;;10.03;76.90;100629.19;1746227;81;26213;-57
2021/04/20 07:10:14;;;;;;;22.82;15.13;;;;;;;10.11;76.91;100625.31;1743759;82;27582;-59
2021/04/20 07:12:46;;;;;;;27.10;14.75;;;;;;;10.20;76.54;100628.17;1743263;82;25756;-58
2021/04/20 07:15:20;;;;;;;30.57;14.07;;;;;;;10.29;76.46;100628.18;1743686;82;25709;-59
2021/04/20 07:18:12;;;;;;;22.55;14.30;;;;;;;10.42;76.51;100629.81;1743811;82;25704;-59
2021/04/20 07:21:26;;;;;;;23.10;14.43;;;;;;;10.54;76.42;100631.88;1743496;82;26261;-58
2021/04/20 07:24:15;;;;;;;24.35;14.10;;;;;;;10.64;76.16;100630.88;1743893;82;28450;-60
2021/04/20 07:26:54;;;;;;;24.35;14.53;;;;;;;10.81;76.17;100628.48;1743460;82;25724;-61
2021/04/20 07:29:50;;;;;;;26.65;15.13;;;;;;;10.90;75.70;100630.84;1743648;82;25717;-60
2021/04/20 07:32:55;;;;;;;27.42;15.18;;;;;;;10.99;75.47;100630.46;1730032;82;26430;-59
2021/04/20 07:36:02;;;;;;;23.87;14.75;;;;;;;11.03;75.01;100638.11;1743651;82;26651;-59
2021/04/20 07:38:35;;;;;;;19.70;13.85;;;;;;;11.09;74.76;100638.91;1712308;82;27425;-58
2021/04/20 07:41:39;;;;;;;17.95;13.53;;;;;;;11.10;73.80;100645.12;1732168;81;26565;-60
2021/04/20 07:44:33;;;;;;;22.35;16.02;;;;;;;11.11;74.09;100649.52;1720046;82;25832;-58
2021/04/20 07:47:12;;;;;;;20.80;14.65;;;;;;;11.15;74.25;100645.56;1713970;82;25795;-58
2021/04/20 07:50:00;;;;;;;22.73;14.53;;;;;;;11.25;74.27;100646.89;1713891;83;25846;-57
2021/04/20 07:52:49;;;;;;;19.07;13.88;;;;;;;11.34;73.56;100643.33;1713829;82;27606;-58
2021/04/20 07:55:24;;;;;;;22.20;14.23;;;;;;;11.42;72.05;100643.97;1713870;83;25771;-58
2021/04/20 07:57:57;;;;;;;23.00;13.68;;;;;;;11.50;72.61;100644.57;1713876;83;25681;-58
2021/04/20 08:00:38;;;;;;;18.25;12.82;;;;;;;11.57;72.35;100633.55;1705999;83;26066;-57
2021/04/20 08:03:20;;;;;;;20.88;13.20;;;;;;;11.67;72.51;100628.16;1705785;82;25615;-57
2021/04/20 08:06:02;;;;;;;;;;;;;;;11.79;72.57;100639.09;1765055;79;27308;-57
2021/04/20 08:08:52;;;;;;;20.72;12.28;;;;;;;11.88;72.22;100636.86;1764965;79;25729;-58
2021/04/20 08:11:32;;;;;;;19.05;11.80;;;;;;;11.96;72.06;100637.47;1743259;81;25734;-60
2021/04/20 08:14:48;;;;;;;17.67;11.78;;;;;;;12.03;71.64;100634.55;1765052;81;25781;-60
2021/04/20 08:17:24;;;;;;;17.05;12.05;;;;;;;12.14;71.57;100636.23;1765137;79;25642;-58
2021/04/20 08:20:00;;;;;;;19.35;12.35;;;;;;;12.29;71.12;100632.50;1765098;81;27542;-56
2021/04/20 08:22:29;;;;;;;15.68;11.30;;;;;;;12.34;70.32;100628.87;1765064;79;26123;-58
2021/04/20 08:25:15;;;;;;;19.25;13.08;;;;;;;12.39;68.94;100630.25;1764974;79;25747;-58
2021/04/20 08:28:22;;;;;;;17.48;12.35;;;;;;;12.42;68.42;100640.23;1765072;79;25673;-60
2021/04/20 08:31:14;;;;;;;18.12;12.30;;;;;;;12.39;68.95;100632.94;1765084;81;25835;-57
2021/04/20 08:33:48;;;;;;;20.12;13.08;;;;;;;12.46;68.80;100634.89;1765130;79;27414;-60
2021/04/20 08:36:40;;;;;;;16.87;12.25;;;;;;;12.57;68.51;100632.98;1764975;81;26129;-59
2021/04/20 08:39:23;;;;;;;19.20;12.60;;;;;;;12.64;68.27;100632.20;1764424;81;25687;-58
2021/04/20 08:42:14;;;;;;;17.92;11.48;;;;;;;12.80;67.56;100627.98;1832759;78;25718;-57
2021/04/20 08:44:57;;;;;;;16.90;11.25;;;;;;;12.84;67.05;100628.01;1805156;79;25717;-58
2021/04/20 08:47:40;;;;;;;13.08;9.80;;;;;;;12.97;66.38;100622.21;1805339;79;28530;-60
2021/04/20 08:50:18;;;;;;;15.85;9.80;;;;;;;13.20;65.60;100625.79;1794294;79;25381;-59
2021/04/20 08:53:08;;;;;;;13.68;9.83;;;;;;;13.55;64.34;100622.69;1775688;79;25777;-57
2021/04/20 08:55:52;;;;;;;14.18;9.78;;;;;;;13.90;63.41;100623.03;1805445;79;25701;-59
2021/04/20 08:58:28;;;;;;;14.33;9.20;;;;;;;14.33;63.62;100615.44;1767150;80;25789;-57
2021/04/20 09:01:26;;;;;;;14.05;8.83;;;;;;;14.71;61.77;100619.44;1766746;79;27322;-59
2021/04/20 09:04:54;;;;;;;11.48;7.90;;;;;;;14.96;59.41;100610.48;1767109;81;26536;-61
2021/04/20 09:07:57;;;;;;;10.98;8.23;;;;;;;15.13;54.88;100608.11;1767447;81;25762;-59
2021/04/20 09:10:43;;;;;;;17.47;9.87;;;;;;;15.09;57.58;100613.52;1730841;81;25658;-57
2021/04/20 09:13:21;;;;;;;12.28;8.80;;;;;;;15.11;53.10;100618.27;1766794;81;26173;-58
2021/04/20 09:15:57;;;;;;;14.75;9.60;;;;;;;15.06;53.92;100611.14;1767416;79;28431;-58
2021/04/20 09:18:42;;;;;;;11.08;7.85;;;;;;;15.24;54.11;100606.91;1767194;81;25759;-58
2021/04/20 09:21:16;;;;;;;9.10;6.90;;;;;;;15.78;53.94;100598.14;1767324;80;25645;-58
2021/04/20 09:24:05;;;;;;;17.62;6.72;;;;;;;16.40;51.58;100594.33;1736061;81;25683;-59
2021/04/20 09:26:58;;;;;;;10.30;7.33;;;;;;;16.76;52.37;100592.39;1732278;82;25712;-57
2021/04/20 09:29:33;;;;;;;11.50;7.62;;;;;;;17.27;50.40;100585.02;1740417;82;27537;-58
2021/04/20 09:32:21;;;;;;;9.70;6.75;;;;;;;17.84;50.21;100585.41;1739513;82;25823;-58
2021/04/20 09:34:54;;;;;;;10.60;6.75;;;;;;;18.19;47.27;100583.47;1711936;82;25697;-62
2021/04/20 09:37:25;;;;;;;54.73;29.05;;;;;;;18.91;45.35;100584.44;1740593;82;25771;-59
2021/04/20 09:39:56;;;;;;;14.70;6.95;;;;;;;19.69;45.52;100579.48;1767113;79;26175;-58
2021/04/20 09:42:27;;;;;;;10.25;7.40;;;;;;;20.36;44.09;100572.95;1733582;82;28497;-61
2021/04/20 09:45:15;;;;;;;10.05;6.58;;;;;;;21.22;39.87;100580.95;1710778;82;25703;-60
2021/04/20 09:48:22;;;;;;;10.72;6.65;;;;;;;21.04;37.97;100573.91;1705603;84;25686;-63
2021/04/20 09:51:15;;;;;;;5.78;5.10;;;;;;;21.13;36.49;100571.81;1710571;83;25718;-57
2021/04/20 09:54:11;;;;;;;7.45;4.72;;;;;;;20.68;37.59;100570.51;1710628;83;25665;-58
2021/04/20 09:56:50;;;;;;;6.25;4.95;;;;;;;19.73;37.95;100570.36;1705113;84;27518;-60
2021/04/20 09:59:49;;;;;;;6.05;5.03;;;;;;;19.80;36.36;100566.63;1707539;82;25797;-59
2021/04/20 10:02:37;;;;;;;7.15;4.80;;;;;;;20.48;37.85;100561.74;1706623;83;25756;-59
2021/04/20 10:05:34;;;;;;;6.80;5.30;;;;;;;21.71;37.84;100561.00;1708914;82;26114;-61
2021/04/20 10:08:44;;;;;;;9.25;5.53;;;;;;;22.58;35.51;100550.19;1726997;81;25494;-59
2021/04/20 10:11:55;;;;;;;7.97;4.65;;;;;;;22.86;33.77;100553.56;1773206;80;27542;-58
2021/04/20 10:14:41;;;;;;;9.23;5.37;;;;;;;22.12;34.08;100551.27;1746122;80;25876;-58
2021/04/20 10:17:17;;;;;;;7.25;5.15;;;;;;;21.50;34.74;100555.78;1776645;80;25766;-59
2021/04/20 10:20:16;;;;;;;8.10;4.70;;;;;;;20.91;35.94;100553.73;1746419;81;25683;-57
2021/04/20 10:22:55;;;;;;;5.08;4.30;;;;;;;20.50;35.32;100551.96;1777006;80;25634;-59
2021/04/20 10:25:35;;;;;;;6.47;5.03;;;;;;;19.85;36.72;100561.43;1746142;82;27659;-61
2021/04/20 10:28:31;;;;;;;9.73;5.17;;;;;;;19.41;37.69;100568.08;1776691;80;26850;-60
2021/04/20 10:31:32;;;;;;;7.37;4.50;;;;;;;19.15;37.33;100564.62;1746079;82;25775;-57
2021/04/20 10:34:02;;;;;;;6.08;4.80;;;;;;;19.20;36.70;100558.08;1776911;80;25847;-58
2021/04/20 10:36:39;;;;;;;9.68;5.37;;;;;;;20.04;37.89;100557.62;1746336;80;25741;-60
2021/04/20 10:39:11;;;;;;;6.62;4.75;;;;;;;21.19;34.47;100551.81;1776500;80;27714;-57
2021/04/20 10:41:46;;;;;;;7.80;5.00;;;;;;;21.84;34.11;100551.07;1705380;82;25934;-56
2021/04/20 10:44:17;;;;;;;6.97;4.37;;;;;;;22.66;34.07;100550.44;1717427;82;25667;-58
2021/04/20 10:47:00;;;;;;;8.18;4.70;;;;;;;22.49;31.92;100552.34;1714073;82;25745;-58
2021/04/20 10:49:31;;;;;;;5.80;4.80;;;;;;;21.97;31.60;100557.84;1714055;83;26137;-57
2021/04/20 10:52:05;;;;;;;5.62;4.55;;;;;;;21.48;33.71;100556.52;1733825;79;27531;-61
2021/04/20 10:54:44;;;;;;;9.33;5.03;;;;;;;21.56;32.58;100551.63;1722432;82;25774;-60
2021/04/20 10:57:23;;;;;;;6.97;4.22;;;;;;;21.94;33.55;100552.83;1800172;78;25646;-60
2021/04/20 10:59:56;;;;;;;8.25;4.20;;;;;;;22.58;29.73;100546.59;1810952;79;25789;-61
2021/04/20 11:02:36;;;;;;;10.60;4.30;;;;;;;22.01;32.28;100559.11;1811380;78;25658;-59
2021/04/20 11:05:07;;;;;;;10.78;5.22;;;;;;;21.59;33.22;100547.69;1811294;78;28488;-60
2021/04/20 11:07:43;;;;;;;6.67;4.25;;;;;;;21.34;33.91;100550.22;1813243;78;26144;-58
2021/04/20 11:10:15;;;;;;;6.28;4.05;;;;;;;20.99;33.45;100554.57;1819263;78;25722;-58
2021/04/20 11:12:47;;;;;;;4.87;3.75;;;;;;;20.68;33.50;100556.84;1819339;77;25587;-57
2021/04/20 11:15:26;;;;;;;8.28;4.47;;;;;;;20.44;34.02;100563.19;1815792;78;25666;-59
2021/04/20 11:18:12;;;;;;;7.20;4.85;;;;;;;20.09;34.08;100562.47;1811239;79;27597;-62
2021/04/20 11:20:47;;;;;;;6.33;4.55;;;;;;;19.59;35.06;100567.55;1810908;79;25722;-58
2021/04/20 11:23:22;;;;;;;6.65;4.28;;;;;;;19.27;35.45;100573.95;1811016;78;25610;-61
2021/04/20 11:25:56;;;;;;;6.53;4.30;;;;;;;19.29;36.43;100585.52;1811044;79;25614;-58
2021/04/20 11:28:51;;;;;;;5.33;3.90;;;;;;;18.77;37.65;100582.97;1811297;79;25675;-58
2021/04/20 11:31:33;;;;;;;4.62;3.20;;;;;;;18.33;38.10;100579.03;1811201;78;27578;-61
2021/04/20 11:34:25;;;;;;;6.45;2.62;;;;;;;17.61;39.40;100593.16;1811264;79;25646;-59
2021/04/20 11:37:14;;;;;;;4.20;2.15;;;;;;;17.16;39.02;100594.48;1811141;79;25653;-58
2021/04/20 11:40:03;;;;;;;3.22;1.90;;;;;;;16.61;39.58;100591.49;1808358;79;25788;-59
2021/04/20 11:42:40;;;;;;;5.00;2.90;;;;;;;16.34;40.73;100592.34;1781893;78;25821;-59
2021/04/20 11:45:20;;;;;;;4.55;2.77;;;;;;;16.20;41.00;100602.91;1808536;79;27525;-57
2021/04/20 11:47:59;;;;;;;3.83;2.37;;;;;;;16.09;40.95;100599.27;1808367;78;25492;-58
2021/04/20 11:50:32;;;;;;;6.92;2.37;;;;;;;15.97;39.16;100594.70;1808236;79;25911;-58
2021/04/20 11:53:04;;;;;;;2.62;2.02;;;;;;;15.80;39.38;100602.87;1836004;77;26100;-57
2021/04/20 11:55:43;;;;;;;8.48;2.47;;;;;;;15.64;39.22;100600.23;1770067;80;26155;-58
2021/04/20 11:58:22;;;;;;;3.98;1.70;;;;;;;15.34;39.42;100611.64;1781804;80;28461;-63
2021/04/20 12:00:58;;;;;;;2.92;2.17;;;;;;;15.05;40.45;100606.77;1781661;80;25738;-57
2021/04/20 12:03:23;;;;;;;4.90;2.10;;;;;;;14.77;41.51;100605.73;1737418;80;25665;-61